YPML weather

Pomonal Airstrip
Victoria, Australia

Public forecast

Using degrees Celsius for public forecast. Weather courtesy of forecast.io.

METAR (pilot weather report)

Closest report is Mount Gambier Airport, 95.3 nm (176.5 km) WSW. Retrieved 2019/05/25 04:00 UTC (28 minutes ago):

YMTG 250400Z AUTO 27013KT 9999 // SCT021 SCT028 SCT049 15/11 Q1010

TAF (pilot weather forecast)

Forecast is more than 6 hours old.

Closest forecast is Avalon Airport, 98.1 nm (181.6 km) ESE. Retrieved 2019/05/24 18:36 UTC (10 hours ago):

TAF YMAV 241722Z 2418/2518 31010KT CAVOK FM250000 32015G25KT CAVOK FM250700 28014KT 9999 -SHRA FEW030 INTER 2505/2510 29015G25KT 5000 SHRA BKN020 RMK FM241800 MOD TURB BLW 5000FT TL251200 T 12 11 15 18 Q 1013 1013 1013 1010